Time;durP1;ratioP1;P1;durP2;ratioP2;P2;SDS_P1;SDS_P2;PMS_P1;PMS_P2;Temp;Humidity;BMP_temperature;BMP_pressure;BME280_temperature;BME280_humidity;BME280_pressure;Samples;Min_cycle;Max_cycle;Signal;HPM_P1;HPM_P2
2021/10/12 00:01:17;;;;;;;4.13;1.55;;;19.70;58.20;;;;;;5095889;28;20050;-59
2021/10/12 00:03:43;;;;;;;4.95;2.00;;;19.70;58.20;;;;;;5095854;28;20024;-59
2021/10/12 00:06:09;;;;;;;5.45;2.05;;;19.70;58.20;;;;;;5095812;28;20494;-57
2021/10/12 00:08:35;;;;;;;6.25;2.08;;;19.70;58.20;;;;;;5095748;28;20024;-59
2021/10/12 00:11:01;;;;;;;4.65;1.73;;;19.60;58.30;;;;;;5095775;28;20027;-58
2021/10/12 00:13:26;;;;;;;5.38;2.08;;;19.70;58.20;;;;;;5095743;28;20388;-59
2021/10/12 00:15:52;;;;;;;5.03;1.88;;;19.60;58.20;;;;;;5095501;28;20032;-59
2021/10/12 00:18:18;;;;;;;4.70;1.77;;;19.70;58.20;;;;;;5095580;28;20098;-58
2021/10/12 00:20:44;;;;;;;5.10;2.10;;;19.70;58.20;;;;;;5095510;28;20031;-59
2021/10/12 00:23:10;;;;;;;5.00;2.17;;;19.60;58.20;;;;;;5094729;28;20021;-58
2021/10/12 00:25:35;;;;;;;6.93;2.30;;;19.70;58.10;;;;;;5095421;28;20024;-58
2021/10/12 00:28:01;;;;;;;5.25;2.10;;;19.70;58.20;;;;;;5095386;28;20027;-58
2021/10/12 00:30:27;;;;;;;5.13;1.98;;;19.60;58.10;;;;;;5095279;28;20035;-57
2021/10/12 00:32:52;;;;;;;6.50;2.30;;;19.60;58.10;;;;;;5094023;28;20024;-58
2021/10/12 00:35:18;;;;;;;6.13;2.30;;;19.60;58.10;;;;;;5095172;28;20387;-58
2021/10/12 00:37:44;;;;;;;5.30;2.13;;;19.60;58.10;;;;;;5095180;28;20491;-58
2021/10/12 00:40:10;;;;;;;5.45;2.28;;;19.60;58.10;;;;;;5095078;28;20048;-58
2021/10/12 00:42:37;;;;;;;4.80;2.22;;;19.60;58.10;;;;;;5095092;28;20039;-58
2021/10/12 00:45:05;;;;;;;5.40;2.42;;;19.60;58.10;;;;;;5095064;28;20054;-59
2021/10/12 00:47:31;;;;;;;6.65;2.30;;;19.60;58.10;;;;;;5095145;28;20095;-58
2021/10/12 00:49:56;;;;;;;5.47;2.13;;;19.60;58.10;;;;;;5094979;28;20316;-58
2021/10/12 00:52:22;;;;;;;6.30;2.78;;;19.60;58.10;;;;;;5094908;28;20375;-58
2021/10/12 00:54:47;;;;;;;5.88;2.42;;;19.60;58.00;;;;;;5093586;28;20032;-58
2021/10/12 00:57:14;;;;;;;4.40;2.30;;;19.60;58.00;;;;;;5094811;28;20039;-58
2021/10/12 00:59:43;;;;;;;5.43;2.38;;;19.60;58.00;;;;;;5094712;28;20111;-58
2021/10/12 01:02:08;;;;;;;7.40;2.58;;;19.60;58.00;;;;;;5094682;28;20016;-58
2021/10/12 01:04:34;;;;;;;4.35;2.30;;;19.60;58.00;;;;;;5094655;28;20032;-57
2021/10/12 01:07:00;;;;;;;5.75;2.47;;;19.60;58.00;;;;;;5094620;28;20039;-58
2021/10/12 01:09:26;;;;;;;7.60;2.80;;;19.60;58.00;;;;;;5094652;28;20035;-58
2021/10/12 01:11:51;;;;;;;5.03;2.40;;;19.60;58.00;;;;;;5094519;28;20024;-58
2021/10/12 01:14:17;;;;;;;7.72;2.67;;;19.60;58.10;;;;;;5094332;28;20471;-58
2021/10/12 01:16:43;;;;;;;14.10;3.28;;;19.50;58.00;;;;;;5094674;28;20036;-57
2021/10/12 01:19:09;;;;;;;4.93;2.30;;;19.50;58.00;;;;;;5094344;28;20024;-58
2021/10/12 01:21:44;;;;;;;5.25;2.55;;;19.60;58.00;;;;;;5094640;28;20034;-58
2021/10/12 01:24:09;;;;;;;6.18;2.53;;;19.50;58.00;;;;;;5094284;28;20028;-58
2021/10/12 01:26:36;;;;;;;6.53;2.90;;;19.50;58.00;;;;;;5094306;28;20020;-58
2021/10/12 01:29:03;;;;;;;6.00;2.72;;;19.60;58.00;;;;;;5094150;28;20028;-58
2021/10/12 01:31:29;;;;;;;6.45;2.97;;;19.50;58.00;;;;;;5094451;28;20028;-58
2021/10/12 01:33:55;;;;;;;6.10;2.67;;;19.50;58.00;;;;;;5091771;28;20421;-58
2021/10/12 01:36:21;;;;;;;6.47;2.72;;;19.50;57.90;;;;;;5093876;28;20032;-58
2021/10/12 01:38:47;;;;;;;6.00;2.35;;;19.50;57.90;;;;;;5093932;28;20022;-58
2021/10/12 01:41:13;;;;;;;5.43;2.53;;;19.50;58.00;;;;;;5093984;28;20040;-58
2021/10/12 01:43:39;;;;;;;6.15;2.67;;;19.50;58.00;;;;;;5093949;28;20027;-58
2021/10/12 01:46:05;;;;;;;6.43;2.60;;;19.50;58.00;;;;;;5093944;28;20464;-58
2021/10/12 01:48:32;;;;;;;6.25;2.63;;;19.50;57.90;;;;;;5093878;28;20073;-58
2021/10/12 01:50:58;;;;;;;6.70;2.70;;;19.50;57.90;;;;;;5093964;28;20031;-59
2021/10/12 01:53:24;;;;;;;6.53;3.03;;;19.50;57.90;;;;;;5093752;28;20024;-58
2021/10/12 01:55:49;;;;;;;6.53;2.72;;;19.50;57.90;;;;;;5093536;28;20032;-58
2021/10/12 01:58:15;;;;;;;5.97;2.80;;;19.50;57.90;;;;;;5093743;28;20032;-60
2021/10/12 02:00:41;;;;;;;5.50;2.63;;;19.50;57.90;;;;;;5093583;28;20082;-58
2021/10/12 02:03:06;;;;;;;7.05;2.78;;;19.50;57.90;;;;;;5093624;28;20427;-58
2021/10/12 02:05:32;;;;;;;7.97;3.05;;;19.50;57.90;;;;;;5093518;28;20054;-58
2021/10/12 02:07:57;;;;;;;5.53;2.72;;;19.50;57.90;;;;;;5093455;28;20044;-58
2021/10/12 02:10:23;;;;;;;6.32;2.67;;;19.50;57.90;;;;;;5093383;28;20024;-58
2021/10/12 02:12:50;;;;;;;6.22;2.90;;;19.50;57.90;;;;;;5093494;28;20020;-58
2021/10/12 02:15:15;;;;;;;7.10;3.08;;;19.50;57.90;;;;;;5093539;28;20405;-58
2021/10/12 02:17:41;;;;;;;6.70;2.85;;;19.50;57.90;;;;;;5093362;28;20031;-60
2021/10/12 02:20:08;;;;;;;6.93;2.88;;;19.50;57.90;;;;;;5093309;28;20035;-58
2021/10/12 02:22:34;;;;;;;7.53;2.75;;;19.50;57.90;;;;;;5091849;28;20422;-61
2021/10/12 02:24:59;;;;;;;7.22;3.03;;;19.50;57.90;;;;;;5093436;28;20024;-56
2021/10/12 02:27:25;;;;;;;6.65;3.20;;;19.50;57.90;;;;;;5091960;28;20472;-58
2021/10/12 02:29:51;;;;;;;5.88;3.13;;;19.50;57.90;;;;;;5093183;28;20036;-58
2021/10/12 02:32:18;;;;;;;6.18;2.60;;;19.50;57.90;;;;;;5093352;28;20115;-58
2021/10/12 02:34:43;;;;;;;6.35;2.42;;;19.50;57.90;;;;;;5093102;28;20101;-58
2021/10/12 02:37:09;;;;;;;6.70;2.83;;;19.50;57.80;;;;;;5093082;28;20476;-58
2021/10/12 02:39:35;;;;;;;5.43;2.50;;;19.50;57.80;;;;;;5092852;28;20101;-58
2021/10/12 02:42:00;;;;;;;6.32;2.95;;;19.40;57.80;;;;;;5093049;28;20372;-58
2021/10/12 02:44:26;;;;;;;7.38;3.15;;;19.40;57.80;;;;;;5092667;28;20145;-58
2021/10/12 02:46:52;;;;;;;7.00;3.28;;;19.50;57.80;;;;;;5093029;28;20107;-58
2021/10/12 02:49:17;;;;;;;5.35;2.72;;;19.50;57.80;;;;;;5093052;28;20032;-58
2021/10/12 02:51:43;;;;;;;6.00;3.15;;;19.40;57.80;;;;;;5092937;28;20042;-58
2021/10/12 02:54:09;;;;;;;6.38;3.42;;;19.40;57.80;;;;;;5092898;28;20020;-58
2021/10/12 02:56:34;;;;;;;7.18;3.17;;;19.40;57.80;;;;;;5092838;28;20044;-58
2021/10/12 02:59:00;;;;;;;6.72;3.38;;;19.50;57.80;;;;;;5093001;28;20043;-58
2021/10/12 03:01:25;;;;;;;7.50;3.53;;;19.40;57.80;;;;;;5092869;28;20451;-57
2021/10/12 03:03:51;;;;;;;5.30;2.80;;;19.40;57.90;;;;;;5093024;28;20016;-58
2021/10/12 03:06:17;;;;;;;7.47;3.70;;;19.40;57.80;;;;;;5091556;28;20125;-58
2021/10/12 03:08:43;;;;;;;5.70;3.03;;;19.40;57.80;;;;;;5092762;28;20060;-57
2021/10/12 03:11:09;;;;;;;6.00;2.90;;;19.40;57.80;;;;;;5092965;28;20512;-59
2021/10/12 03:13:34;;;;;;;5.20;2.83;;;19.40;57.80;;;;;;5092708;28;20533;-58
2021/10/12 03:16:00;;;;;;;6.97;3.53;;;19.40;57.80;;;;;;5092547;28;20032;-58
2021/10/12 03:18:29;;;;;;;6.85;3.65;;;19.40;57.80;;;;;;5092990;28;20035;-58
2021/10/12 03:20:55;;;;;;;6.22;3.13;;;19.40;57.80;;;;;;5092683;28;20053;-58
2021/10/12 03:23:21;;;;;;;7.18;3.35;;;19.40;57.80;;;;;;5092601;28;20020;-58
2021/10/12 03:25:46;;;;;;;7.43;2.90;;;19.40;57.70;;;;;;5092520;28;20024;-58
2021/10/12 03:28:12;;;;;;;6.47;3.25;;;19.40;57.80;;;;;;5092498;28;20023;-58
2021/10/12 03:30:37;;;;;;;5.72;2.75;;;19.40;57.70;;;;;;5092583;28;20031;-58
2021/10/12 03:33:04;;;;;;;7.18;3.22;;;19.40;57.80;;;;;;5092557;28;20472;-58
2021/10/12 03:35:32;;;;;;;5.90;2.80;;;19.40;57.70;;;;;;5092494;28;20115;-58
2021/10/12 03:37:58;;;;;;;7.70;3.25;;;19.40;57.70;;;;;;5092526;28;20054;-58
2021/10/12 03:40:24;;;;;;;6.25;3.03;;;19.40;57.70;;;;;;5092370;28;20302;-58
2021/10/12 03:42:50;;;;;;;7.10;3.50;;;19.40;57.70;;;;;;5092519;28;20126;-58
2021/10/12 03:45:16;;;;;;;7.55;3.25;;;19.40;57.70;;;;;;5092450;28;20576;-58
2021/10/12 03:47:41;;;;;;;6.82;3.00;;;19.40;57.80;;;;;;5092377;28;20475;-58
2021/10/12 03:50:07;;;;;;;6.20;3.15;;;19.40;57.70;;;;;;5092412;28;20020;-59
2021/10/12 03:52:33;;;;;;;6.45;3.28;;;19.40;57.80;;;;;;5092395;28;20024;-58
2021/10/12 03:54:58;;;;;;;6.65;3.30;;;19.30;57.70;;;;;;5092326;28;20028;-59
2021/10/12 03:57:24;;;;;;;6.72;3.33;;;19.40;57.70;;;;;;5093898;28;20032;-58
2021/10/12 03:59:49;;;;;;;7.65;3.13;;;19.40;57.70;;;;;;5095982;28;20028;-58
2021/10/12 04:02:15;;;;;;;6.72;2.90;;;19.40;57.70;;;;;;5095994;28;20031;-57
2021/10/12 04:04:40;;;;;;;6.97;3.20;;;19.30;57.70;;;;;;5095865;28;20020;-58
2021/10/12 04:07:06;;;;;;;6.82;3.38;;;19.30;57.70;;;;;;5095849;28;20024;-58
2021/10/12 04:09:31;;;;;;;6.97;3.22;;;19.30;57.70;;;;;;5095771;28;20467;-59
2021/10/12 04:11:57;;;;;;;6.75;2.90;;;19.30;57.70;;;;;;5095677;28;20030;-58
2021/10/12 04:14:23;;;;;;;7.20;3.40;;;19.30;57.70;;;;;;5095622;28;20101;-57
2021/10/12 04:16:49;;;;;;;6.68;3.20;;;19.30;57.70;;;;;;5094353;28;20070;-57
2021/10/12 04:19:14;;;;;;;6.55;3.30;;;19.40;57.70;;;;;;5095619;28;20379;-59
2021/10/12 04:21:40;;;;;;;6.38;2.90;;;19.40;57.70;;;;;;5095511;28;20036;-58
2021/10/12 04:24:06;;;;;;;7.00;3.28;;;19.30;57.60;;;;;;5095443;28;20058;-58
2021/10/12 04:26:32;;;;;;;7.45;3.20;;;19.40;57.60;;;;;;5095371;28;20039;-58
2021/10/12 04:28:57;;;;;;;7.18;3.17;;;19.30;57.60;;;;;;5095555;28;20031;-58
2021/10/12 04:31:23;;;;;;;7.63;3.20;;;19.30;57.60;;;;;;5095360;28;20312;-58
2021/10/12 04:33:48;;;;;;;7.30;3.40;;;19.30;57.60;;;;;;5095349;28;20361;-58
2021/10/12 04:36:14;;;;;;;6.88;3.20;;;19.40;57.60;;;;;;5095127;28;20040;-58
2021/10/12 04:38:40;;;;;;;6.97;2.95;;;19.40;57.50;;;;;;5094995;28;20490;-58
2021/10/12 04:41:07;;;;;;;7.35;3.03;;;19.30;57.60;;;;;;5095292;28;20040;-58
2021/10/12 04:43:33;;;;;;;6.28;3.13;;;19.40;57.50;;;;;;5095113;28;20499;-58
2021/10/12 04:45:59;;;;;;;5.53;2.65;;;19.40;57.50;;;;;;5095152;28;20060;-58
2021/10/12 04:48:24;;;;;;;5.93;2.92;;;19.40;57.50;;;;;;5095036;28;20034;-58
2021/10/12 04:50:50;;;;;;;5.75;2.85;;;19.40;57.60;;;;;;5094900;28;20031;-58
2021/10/12 04:53:16;;;;;;;6.50;2.90;;;19.40;57.50;;;;;;5095197;28;20027;-58
2021/10/12 04:55:42;;;;;;;5.85;3.00;;;19.40;57.50;;;;;;5095005;28;20036;-57
2021/10/12 04:58:08;;;;;;;6.50;2.92;;;19.40;57.50;;;;;;5094808;28;20020;-58
2021/10/12 05:00:35;;;;;;;5.63;2.92;;;19.40;57.50;;;;;;5093577;28;20388;-58
2021/10/12 05:03:00;;;;;;;5.82;2.85;;;19.40;57.50;;;;;;5094823;28;20020;-58
2021/10/12 05:05:26;;;;;;;5.18;2.40;;;19.40;57.50;;;;;;5094739;28;20471;-58
2021/10/12 05:07:51;;;;;;;7.28;3.70;;;19.40;57.50;;;;;;5093170;28;20073;-59
2021/10/12 05:10:17;;;;;;;8.43;3.42;;;19.40;57.50;;;;;;5094666;28;20039;-58
2021/10/12 05:12:42;;;;;;;6.70;2.95;;;19.40;57.50;;;;;;5093287;28;20066;-58
2021/10/12 05:15:08;;;;;;;6.40;3.10;;;19.40;57.50;;;;;;5094482;28;20036;-58
2021/10/12 05:17:39;;;;;;;6.72;2.78;;;19.40;57.40;;;;;;5094531;28;20078;-59
2021/10/12 05:20:06;;;;;;;5.72;3.08;;;19.40;57.50;;;;;;5094495;28;20388;-58
2021/10/12 05:22:31;;;;;;;6.57;2.88;;;19.40;57.50;;;;;;5094432;28;20028;-59
2021/10/12 05:24:58;;;;;;;6.70;3.10;;;19.40;57.40;;;;;;5094332;28;20028;-60
2021/10/12 05:27:24;;;;;;;5.35;2.60;;;19.50;57.50;;;;;;5094624;28;20056;-60
2021/10/12 05:29:50;;;;;;;6.00;2.72;;;19.40;57.40;;;;;;5094390;28;20028;-60
2021/10/12 05:32:15;;;;;;;7.78;3.15;;;19.50;57.40;;;;;;5094367;28;20058;-59
2021/10/12 05:34:41;;;;;;;6.63;3.17;;;19.50;57.50;;;;;;5094111;28;20444;-59
2021/10/12 05:37:06;;;;;;;6.32;3.13;;;19.50;57.50;;;;;;5094166;28;20093;-59
2021/10/12 05:39:32;;;;;;;5.95;2.90;;;19.50;57.40;;;;;;5093867;28;20115;-60
2021/10/12 05:41:58;;;;;;;6.70;3.63;;;19.50;57.50;;;;;;5094030;28;20028;-59
2021/10/12 05:44:23;;;;;;;6.28;2.22;;;19.50;57.50;;;;;;5094250;28;20036;-59
2021/10/12 05:46:49;;;;;;;5.80;2.88;;;19.50;57.40;;;;;;5094252;28;20035;-59
2021/10/12 05:49:15;;;;;;;7.35;3.10;;;19.50;57.40;;;;;;5093885;28;20117;-59
2021/10/12 05:51:46;;;;;;;5.97;2.97;;;19.50;57.40;;;;;;5093826;28;20028;-60
2021/10/12 05:54:16;;;;;;;5.05;2.53;;;19.50;57.40;;;;;;5094014;28;20024;-59
2021/10/12 05:57:19;;;;;;;6.47;3.00;;;19.50;57.50;;;;;;5093712;28;20471;-59
2021/10/12 05:59:34;;;;;;;5.93;2.60;;;19.50;57.40;;;;;;5092290;28;20113;-59
2021/10/12 06:02:00;;;;;;;5.05;2.53;;;19.50;57.40;;;;;;5093767;28;20070;-60
2021/10/12 06:04:26;;;;;;;6.75;2.78;;;19.50;57.40;;;;;;5093543;28;20479;-59
2021/10/12 06:06:54;;;;;;;5.82;2.80;;;19.50;57.40;;;;;;5092267;28;20483;-59
2021/10/12 06:09:19;;;;;;;6.13;2.80;;;19.50;57.40;;;;;;5093653;28;20027;-59
2021/10/12 06:11:45;;;;;;;7.25;2.80;;;19.50;57.40;;;;;;5092342;28;20040;-58
2021/10/12 06:14:10;;;;;;;6.63;2.90;;;19.50;57.50;;;;;;5099123;28;20023;-58
2021/10/12 06:16:36;;;;;;;5.40;2.75;;;19.50;57.40;;;;;;5098466;28;20047;-57
2021/10/12 06:19:02;;;;;;;8.68;3.42;;;19.50;57.00;;;;;;5097870;28;20095;-58
2021/10/12 06:21:27;;;;;;;6.70;2.78;;;19.50;57.20;;;;;;5101176;28;20368;-55
2021/10/12 06:23:53;;;;;;;8.20;3.30;;;19.50;57.20;;;;;;5104112;28;20058;-55
2021/10/12 06:26:18;;;;;;;6.10;2.83;;;19.40;57.30;;;;;;5108310;28;20096;-56
2021/10/12 06:28:44;;;;;;;5.90;2.70;;;19.40;57.40;;;;;;5103783;28;20042;-55
2021/10/12 06:31:10;;;;;;;7.90;2.80;;;19.50;57.30;;;;;;5098643;28;20074;-55
2021/10/12 06:33:35;;;;;;;5.00;2.58;;;19.50;57.20;;;;;;5097888;28;20036;-59
2021/10/12 06:36:01;;;;;;;5.60;2.65;;;19.50;57.10;;;;;;5107280;28;20122;-56
2021/10/12 06:38:26;;;;;;;6.97;2.80;;;19.50;57.10;;;;;;5105805;28;20474;-54
2021/10/12 06:40:52;;;;;;;5.55;2.80;;;19.50;57.10;;;;;;5098680;27;20486;-55
2021/10/12 06:43:18;;;;;;;6.45;3.10;;;19.50;57.30;;;;;;5125490;27;20042;-56
2021/10/12 06:45:44;;;;;;;7.70;2.47;;;19.50;57.30;;;;;;5118737;27;20035;-54
2021/10/12 06:48:10;;;;;;;7.45;3.00;;;19.50;57.30;;;;;;5116054;28;20024;-55
2021/10/12 06:50:36;;;;;;;6.30;2.55;;;19.50;57.30;;;;;;5103302;28;20042;-56
2021/10/12 06:53:03;;;;;;;11.57;2.75;;;19.50;57.30;;;;;;5116355;28;20387;-57
2021/10/12 06:55:29;;;;;;;6.18;2.80;;;19.60;57.20;;;;;;5106350;28;20390;-55
2021/10/12 06:57:55;;;;;;;5.88;2.72;;;19.60;57.20;;;;;;5113276;28;20038;-58
2021/10/12 07:00:20;;;;;;;5.20;2.47;;;19.70;57.20;;;;;;5106190;28;20159;-56
2021/10/12 07:02:47;;;;;;;5.47;2.70;;;19.70;57.10;;;;;;5127409;28;20200;-53
2021/10/12 07:05:14;;;;;;;7.97;2.85;;;19.80;57.10;;;;;;5125038;28;20033;-53
2021/10/12 07:07:40;;;;;;;6.82;2.95;;;19.80;57.10;;;;;;5122892;28;20016;-57
2021/10/12 07:10:07;;;;;;;5.63;2.63;;;19.80;56.90;;;;;;5106436;28;20050;-56
2021/10/12 07:12:33;;;;;;;10.70;2.83;;;19.90;56.90;;;;;;5112847;28;20077;-56
2021/10/12 07:14:59;;;;;;;5.90;2.65;;;20.00;56.80;;;;;;5123430;28;20428;-58
2021/10/12 07:17:25;;;;;;;6.95;2.85;;;20.00;56.90;;;;;;5100673;28;20402;-56
2021/10/12 07:19:51;;;;;;;5.88;2.58;;;20.10;56.70;;;;;;5105911;28;20062;-57
2021/10/12 07:22:19;;;;;;;7.97;2.40;;;20.10;56.60;;;;;;5113928;28;20039;-58
2021/10/12 07:24:45;;;;;;;5.53;2.50;;;20.10;56.50;;;;;;5116145;28;20493;-57
2021/10/12 07:27:11;;;;;;;7.15;2.60;;;20.20;56.60;;;;;;5119506;28;20027;-54
2021/10/12 07:29:36;;;;;;;7.47;2.58;;;20.20;56.60;;;;;;5110373;28;20036;-55
2021/10/12 07:32:02;;;;;;;5.45;2.40;;;20.20;56.50;;;;;;5114300;27;20028;-56
2021/10/12 07:34:28;;;;;;;7.43;2.65;;;20.30;56.60;;;;;;5122344;27;20031;-57
2021/10/12 07:36:53;;;;;;;5.13;2.38;;;20.30;56.40;;;;;;5128496;27;20542;-55
2021/10/12 07:39:18;;;;;;;5.10;2.22;;;20.30;56.60;;;;;;5123758;27;20466;-56
2021/10/12 07:41:44;;;;;;;5.20;2.00;;;20.40;56.40;;;;;;5119536;27;20145;-56
2021/10/12 07:44:10;;;;;;;6.20;2.33;;;20.40;56.40;;;;;;5128929;27;20031;-55
2021/10/12 07:46:36;;;;;;;6.93;2.35;;;20.40;56.40;;;;;;5130656;27;20034;-54
2021/10/12 07:49:01;;;;;;;5.03;2.50;;;20.50;56.40;;;;;;5127725;27;20386;-54
2021/10/12 07:51:29;;;;;;;6.40;2.55;;;20.50;56.40;;;;;;5114278;27;20035;-54
2021/10/12 07:54:00;;;;;;;6.88;2.42;;;20.50;56.30;;;;;;5127306;27;20029;-56
2021/10/12 07:56:44;;;;;;;7.22;2.38;;;20.50;56.30;;;;;;5130871;27;20036;-56
2021/10/12 07:59:11;;;;;;;6.90;2.83;;;20.50;56.30;;;;;;5126871;27;20035;-56
2021/10/12 08:01:38;;;;;;;6.28;2.90;;;20.50;56.30;;;;;;5110868;27;20509;-54
2021/10/12 08:04:04;;;;;;;5.47;2.58;;;20.60;56.30;;;;;;5122617;27;20047;-57
2021/10/12 08:06:30;;;;;;;5.10;2.33;;;20.60;56.20;;;;;;5100921;27;20448;-57
2021/10/12 08:08:56;;;;;;;4.70;2.17;;;20.70;56.20;;;;;;5118819;27;20062;-58
2021/10/12 08:11:24;;;;;;;5.50;2.30;;;20.70;56.30;;;;;;5103002;27;20055;-55
2021/10/12 08:13:53;;;;;;;5.97;2.30;;;20.70;56.30;;;;;;5126822;27;20081;-58
2021/10/12 08:16:24;;;;;;;5.40;2.40;;;20.70;56.20;;;;;;5124588;27;20386;-55
2021/10/12 08:18:49;;;;;;;5.63;2.20;;;20.80;56.20;;;;;;5126260;27;20024;-55
2021/10/12 08:21:15;;;;;;;4.78;2.20;;;20.80;56.10;;;;;;5109950;27;20073;-53
2021/10/12 08:23:40;;;;;;;5.43;2.47;;;20.80;56.10;;;;;;5103966;27;20039;-58
2021/10/12 08:26:06;;;;;;;6.47;2.80;;;20.90;56.10;;;;;;5118916;27;20096;-55
2021/10/12 08:28:31;;;;;;;6.60;2.55;;;20.90;56.20;;;;;;5121184;27;20080;-54
2021/10/12 08:30:57;;;;;;;7.07;2.65;;;20.90;56.20;;;;;;5104927;27;20066;-54
2021/10/12 08:33:22;;;;;;;5.90;2.45;;;21.00;56.00;;;;;;5119600;27;20031;-56
2021/10/12 08:35:48;;;;;;;5.35;2.53;;;21.00;56.00;;;;;;5121259;27;20039;-55
2021/10/12 08:38:19;;;;;;;5.72;2.50;;;21.00;55.40;;;;;;5118591;27;20104;-52
2021/10/12 08:40:45;;;;;;;6.05;2.35;;;20.90;56.10;;;;;;5111569;27;20055;-56
2021/10/12 08:43:11;;;;;;;4.80;2.15;;;20.90;56.10;;;;;;5128873;27;20053;-59
2021/10/12 08:45:39;;;;;;;6.32;2.38;;;21.00;56.00;;;;;;5126405;27;20529;-54
2021/10/12 08:48:06;;;;;;;4.30;2.22;;;21.00;56.00;;;;;;5130109;27;20031;-57
2021/10/12 08:50:32;;;;;;;6.57;2.53;;;21.00;56.00;;;;;;5107701;27;20020;-57
2021/10/12 08:52:58;;;;;;;5.38;2.60;;;21.10;56.00;;;;;;5130025;27;20038;-58
2021/10/12 08:55:24;;;;;;;6.00;2.40;;;21.10;56.00;;;;;;5125160;27;20376;-54
2021/10/12 08:57:49;;;;;;;6.95;2.50;;;21.10;55.80;;;;;;5130083;27;20030;-55
2021/10/12 09:00:17;;;;;;;5.32;2.13;;;21.10;55.90;;;;;;5116350;27;20364;-50
2021/10/12 09:05:53;;;;;;;5.07;2.38;;;21.20;55.80;;;;;;5123421;27;20057;-53
2021/10/12 09:08:26;;;;;;;5.32;2.45;;;21.20;55.90;;;;;;5098215;27;20081;-53
2021/10/12 09:10:52;;;;;;;5.20;2.47;;;21.30;55.70;;;;;;5104348;27;20030;-55
2021/10/12 09:13:17;;;;;;;6.72;2.20;;;21.30;55.70;;;;;;5124188;27;20027;-53
2021/10/12 09:16:06;;;;;;;5.15;2.22;;;21.30;55.70;;;;;;5121200;27;20086;-55
2021/10/12 09:18:48;;;;;;;5.70;2.40;;;21.30;55.80;;;;;;5118115;27;20027;-51
2021/10/12 09:21:23;;;;;;;5.28;2.15;;;21.30;55.70;;;;;;5106727;27;20028;-57
2021/10/12 09:23:49;;;;;;;5.63;2.08;;;21.40;55.70;;;;;;5107195;27;20383;-53
2021/10/12 09:26:24;;;;;;;4.97;1.73;;;21.40;55.60;;;;;;5129180;27;20415;-49
2021/10/12 09:28:50;;;;;;;5.30;1.65;;;21.40;55.70;;;;;;5103945;27;20092;-55
2021/10/12 09:31:16;;;;;;;5.00;2.42;;;21.40;55.70;;;;;;5101952;27;20038;-51
2021/10/12 09:33:50;;;;;;;5.05;1.95;;;21.50;55.40;;;;;;5121568;27;20027;-55
2021/10/12 09:36:36;;;;;;;6.25;2.40;;;21.50;55.40;;;;;;5121498;27;20114;-59
2021/10/12 09:39:04;;;;;;;3.80;1.70;;;21.50;55.40;;;;;;5123970;27;20044;-55
2021/10/12 09:41:29;;;;;;;3.60;1.85;;;21.50;55.50;;;;;;5117924;27;20042;-54
2021/10/12 09:44:11;;;;;;;7.43;2.35;;;21.50;55.50;;;;;;5121879;27;20019;-54
2021/10/12 09:46:39;;;;;;;5.25;2.15;;;21.50;55.50;;;;;;5097778;28;20483;-55
2021/10/12 09:49:11;;;;;;;6.00;2.10;;;21.50;55.40;;;;;;5120136;27;20028;-56
2021/10/12 09:51:41;;;;;;;5.18;2.20;;;21.60;55.40;;;;;;5104349;27;20031;-53
2021/10/12 09:54:20;;;;;;;6.18;1.90;;;21.70;55.20;;;;;;5119576;27;20027;-52
2021/10/12 09:56:46;;;;;;;4.15;1.70;;;21.70;55.20;;;;;;5118538;27;20039;-50
2021/10/12 09:59:12;;;;;;;4.38;1.73;;;21.70;55.30;;;;;;5115760;27;20020;-50
2021/10/12 10:01:38;;;;;;;4.03;1.85;;;21.70;55.30;;;;;;5106342;27;20494;-59
2021/10/12 10:04:04;;;;;;;4.82;1.85;;;21.70;55.30;;;;;;5120055;27;20031;-52
2021/10/12 10:06:30;;;;;;;4.15;2.00;;;21.70;55.30;;;;;;5116762;27;20027;-54
2021/10/12 10:08:57;;;;;;;4.50;1.92;;;21.70;55.30;;;;;;5120470;27;20034;-58
2021/10/12 10:11:26;;;;;;;5.07;2.17;;;21.70;55.30;;;;;;5100241;27;20594;-55
2021/10/12 10:13:51;;;;;;;7.20;1.77;;;21.70;55.30;;;;;;5124041;27;20024;-53
2021/10/12 10:16:17;;;;;;;4.68;2.00;;;21.80;55.30;;;;;;5123465;27;20093;-53
2021/10/12 10:18:44;;;;;;;6.43;2.30;;;21.80;55.30;;;;;;5122042;27;20035;-55
2021/10/12 10:21:11;;;;;;;3.30;1.23;;;21.80;55.20;;;;;;5086137;27;20042;-55
2021/10/12 10:23:47;;;;;;;4.28;2.03;;;21.90;55.00;;;;;;5124886;27;20469;-55
2021/10/12 10:26:29;;;;;;;4.90;2.00;;;21.90;54.90;;;;;;5116353;27;20062;-55
2021/10/12 10:29:15;;;;;;;4.75;1.80;;;21.90;55.10;;;;;;5120219;27;20034;-57
2021/10/12 10:31:43;;;;;;;4.63;1.73;;;21.90;55.10;;;;;;5108646;27;20028;-51
2021/10/12 10:34:27;;;;;;;4.30;1.80;;;21.90;55.20;;;;;;5118885;27;20027;-57
2021/10/12 10:37:22;;;;;;;5.47;1.90;;;21.90;55.10;;;;;;5118876;27;20044;-53
2021/10/12 10:39:57;;;;;;;6.15;2.03;;;22.00;55.00;;;;;;5105249;27;20032;-58
2021/10/12 10:42:25;;;;;;;5.15;1.55;;;22.00;55.10;;;;;;5120733;27;20127;-55
2021/10/12 10:45:01;;;;;;;5.07;2.05;;;22.00;55.10;;;;;;5127964;27;20019;-59
2021/10/12 10:47:50;;;;;;;5.15;1.80;;;22.00;55.10;;;;;;5124959;27;20106;-55
2021/10/12 10:50:26;;;;;;;4.53;2.10;;;22.00;55.10;;;;;;5110845;27;20739;-55
2021/10/12 10:52:55;;;;;;;4.47;1.80;;;22.00;55.00;;;;;;5116268;28;20382;-54
2021/10/12 10:55:26;;;;;;;4.70;1.70;;;22.00;55.00;;;;;;5117108;28;20383;-55
2021/10/12 10:58:17;;;;;;;3.55;1.73;;;22.10;55.00;;;;;;5116087;28;20169;-52
2021/10/12 11:00:49;;;;;;;3.88;1.58;;;22.10;55.00;;;;;;5111234;28;20028;-53
2021/10/12 11:03:32;;;;;;;4.28;1.77;;;22.10;55.00;;;;;;5127385;28;20472;-55
2021/10/12 11:06:00;;;;;;;4.78;2.13;;;22.10;55.10;;;;;;5121496;28;20387;-57
2021/10/12 11:08:32;;;;;;;4.80;1.88;;;22.10;55.00;;;;;;5122090;27;20031;-55
2021/10/12 11:11:03;;;;;;;5.05;1.83;;;22.10;55.00;;;;;;5106468;27;20034;-54
2021/10/12 11:13:35;;;;;;;3.80;1.75;;;22.10;55.00;;;;;;5122074;27;20024;-55
2021/10/12 11:16:04;;;;;;;3.92;1.80;;;22.20;54.90;;;;;;5106078;27;20419;-55
2021/10/12 11:18:30;;;;;;;5.63;1.98;;;22.20;54.90;;;;;;5124445;27;20023;-54
2021/10/12 11:20:58;;;;;;;3.63;1.70;;;22.20;54.90;;;;;;5107275;27;20028;-57
2021/10/12 11:23:35;;;;;;;3.25;1.45;;;22.20;54.90;;;;;;5121131;27;20486;-55
2021/10/12 11:26:11;;;;;;;3.35;1.40;;;22.20;55.00;;;;;;5120493;27;20039;-56
2021/10/12 11:28:38;;;;;;;3.45;1.42;;;22.20;55.00;;;;;;5104206;27;20035;-55
2021/10/12 11:31:13;;;;;;;4.70;1.85;;;22.20;55.00;;;;;;5103517;27;20032;-55
2021/10/12 11:33:40;;;;;;;3.42;1.42;;;22.20;55.00;;;;;;5104525;27;20474;-55
2021/10/12 11:36:07;;;;;;;3.90;1.60;;;22.20;55.00;;;;;;5119740;27;20038;-55
2021/10/12 11:38:39;;;;;;;3.42;1.30;;;22.20;55.00;;;;;;5122266;27;20024;-56
2021/10/12 11:41:17;;;;;;;3.78;1.75;;;22.30;55.00;;;;;;5104202;27;20402;-53
2021/10/12 11:43:44;;;;;;;3.83;1.65;;;22.30;54.90;;;;;;5123727;27;20035;-55
2021/10/12 11:46:10;;;;;;;3.55;1.40;;;22.30;54.80;;;;;;5123892;27;20050;-59
2021/10/12 11:48:37;;;;;;;3.42;1.67;;;22.40;54.70;;;;;;5127975;27;20043;-54
2021/10/12 11:51:21;;;;;;;4.95;1.75;;;22.40;54.70;;;;;;5116227;27;20091;-55
2021/10/12 11:53:48;;;;;;;4.53;1.67;;;22.40;54.60;;;;;;5120573;27;20046;-54
2021/10/12 11:56:15;;;;;;;5.07;1.60;;;22.40;54.60;;;;;;5131630;27;20090;-54
2021/10/12 11:58:41;;;;;;;3.42;1.38;;;22.40;54.60;;;;;;5124261;27;20023;-53
2021/10/12 12:01:09;;;;;;;3.67;1.42;;;22.40;54.60;;;;;;5119184;27;20035;-55
2021/10/12 12:03:35;;;;;;;3.10;1.55;;;22.50;54.60;;;;;;5122484;27;20031;-54
2021/10/12 12:06:01;;;;;;;5.00;1.80;;;22.40;54.70;;;;;;5119889;27;20024;-57
2021/10/12 12:08:30;;;;;;;3.65;1.60;;;22.50;54.60;;;;;;5120604;27;20120;-56
2021/10/12 12:10:56;;;;;;;6.13;1.88;;;22.50;54.50;;;;;;5121049;27;20024;-57
2021/10/12 12:13:26;;;;;;;5.47;1.90;;;22.50;54.60;;;;;;5119963;27;20024;-54
2021/10/12 12:15:52;;;;;;;5.72;1.52;;;22.40;54.80;;;;;;5119149;27;20035;-59
2021/10/12 12:18:20;;;;;;;4.80;1.50;;;22.40;54.80;;;;;;5127354;27;20031;-56
2021/10/12 12:21:01;;;;;;;4.13;1.70;;;22.30;54.90;;;;;;5126021;27;20023;-55
2021/10/12 12:23:30;;;;;;;4.88;1.45;;;22.30;55.00;;;;;;5127326;27;20022;-55
2021/10/12 12:25:59;;;;;;;3.80;1.55;;;22.30;55.00;;;;;;5127017;27;20034;-57
2021/10/12 12:28:25;;;;;;;3.40;1.40;;;22.20;55.10;;;;;;5127776;27;20035;-55
2021/10/12 12:30:51;;;;;;;3.83;1.60;;;22.20;55.10;;;;;;5127963;27;20030;-58
2021/10/12 12:33:16;;;;;;;3.55;1.48;;;22.30;55.10;;;;;;5111661;27;20027;-57
2021/10/12 12:35:49;;;;;;;3.95;1.40;;;22.20;55.10;;;;;;5126765;27;20105;-55
2021/10/12 12:38:31;;;;;;;3.10;1.45;;;22.20;55.00;;;;;;5130311;27;20466;-56
2021/10/12 12:40:57;;;;;;;5.75;1.75;;;22.10;55.10;;;;;;5128853;27;20059;-56
2021/10/12 12:43:30;;;;;;;2.92;1.35;;;22.10;55.20;;;;;;5116273;27;20035;-58
2021/10/12 12:46:16;;;;;;;5.22;1.80;;;22.10;55.00;;;;;;5114831;28;20059;-57
2021/10/12 12:48:43;;;;;;;4.45;1.55;;;22.20;55.10;;;;;;5114637;28;20073;-56
2021/10/12 12:51:10;;;;;;;5.07;1.42;;;22.20;55.10;;;;;;5095187;28;20032;-56